createdAt,value
2023-10-24T00:02:42.575Z,96526.97
2023-10-24T00:07:47.121Z,96516.59
2023-10-24T00:12:50.407Z,96505.25
2023-10-24T00:17:55.162Z,96503.25
2023-10-24T00:22:58.644Z,96483.06
2023-10-24T00:28:01.910Z,96477.53
2023-10-24T00:33:06.657Z,96493.78
2023-10-24T00:38:09.967Z,96500.84
2023-10-24T00:43:13.621Z,96469.66
2023-10-24T00:48:19.514Z,96469.38
2023-10-24T00:53:22.860Z,96460.38
2023-10-24T00:58:26.375Z,96468.63
2023-10-24T01:03:31.193Z,96481.63
2023-10-24T01:08:34.576Z,96492.22
2023-10-24T01:13:38.123Z,96487.47
2023-10-24T01:18:43.052Z,96489.34
2023-10-24T01:23:47.722Z,96485.66
2023-10-24T01:28:51.116Z,96493.81
2023-10-24T01:33:54.384Z,96504.16
2023-10-24T01:38:59.177Z,96505.41
2023-10-24T01:44:02.351Z,96500.97
2023-10-24T01:49:05.844Z,96487.91
2023-10-24T01:54:10.550Z,96466.50
2023-10-24T01:59:13.758Z,96477.59
2023-10-24T02:04:17.056Z,96470.59
2023-10-24T02:09:21.765Z,96435.91
2023-10-24T02:14:24.949Z,96431.53
2023-10-24T02:19:28.324Z,96427.44
2023-10-24T02:24:33.789Z,96431.19
2023-10-24T02:29:37.079Z,96421.38
2023-10-24T02:34:40.489Z,96414.16
2023-10-24T02:39:45.443Z,96411.28
2023-10-24T02:44:50.399Z,96419.25
2023-10-24T02:49:55.696Z,96404.97
2023-10-24T02:55:02.061Z,96404.34
2023-10-24T03:00:07.030Z,96380.63
2023-10-24T03:05:10.754Z,96388.41
2023-10-24T03:10:15.602Z,96387.06
2023-10-24T03:15:19.046Z,96400.84
2023-10-24T03:20:22.455Z,96416.31
2023-10-24T03:25:29.470Z,96417.94
2023-10-24T03:30:32.706Z,96410.97
2023-10-24T03:35:35.897Z,96413.28
2023-10-24T03:40:41.973Z,96405.03
2023-10-24T03:45:45.812Z,96409.63
2023-10-24T03:50:49.206Z,96413.25
2023-10-24T03:55:58.375Z,96412.25
2023-10-24T04:01:06.321Z,96416.44
2023-10-24T04:06:13.187Z,96424.72
2023-10-24T04:11:18.315Z,96416.75
2023-10-24T04:16:22.057Z,96414.22
2023-10-24T04:21:25.418Z,96437.00
2023-10-24T04:26:29.967Z,96419.78
2023-10-24T04:31:33.276Z,96410.34
2023-10-24T04:36:36.672Z,96387.91
2023-10-24T04:41:41.411Z,96404.34
2023-10-24T04:46:45.305Z,96394.34
2023-10-24T04:51:48.510Z,96388.41
2023-10-24T04:56:53.023Z,96380.22
2023-10-24T05:01:56.384Z,96385.88
2023-10-24T05:06:59.959Z,96392.66
2023-10-24T05:12:06.233Z,96381.16
2023-10-24T05:17:09.544Z,96394.91
2023-10-24T05:22:13.140Z,96376.88
2023-10-24T05:27:17.769Z,96382.31
2023-10-24T05:32:21.104Z,96367.69
2023-10-24T05:37:24.470Z,96379.22
2023-10-24T05:42:29.226Z,96392.41
2023-10-24T05:47:32.477Z,96391.91
2023-10-24T05:52:35.818Z,96380.59
2023-10-24T05:57:40.545Z,96391.53
2023-10-24T06:02:43.787Z,96392.00
2023-10-24T06:07:47.115Z,96367.22
2023-10-24T06:12:51.790Z,96364.91
2023-10-24T06:17:56.635Z,96354.94
2023-10-24T06:23:00.034Z,96348.81
2023-10-24T06:28:04.922Z,96334.41
2023-10-24T06:33:08.102Z,96333.38
2023-10-24T06:38:11.716Z,96343.06
2023-10-24T06:43:16.996Z,96341.41
2023-10-24T06:48:21.090Z,96331.63
2023-10-24T06:53:24.370Z,96345.72
2023-10-24T06:58:29.307Z,96358.03
2023-10-24T07:03:32.772Z,96342.94
2023-10-24T07:08:36.072Z,96332.13
2023-10-24T07:13:40.874Z,96336.97
2023-10-24T07:18:44.428Z,96346.91
2023-10-24T07:23:47.549Z,96335.13
2023-10-24T07:28:52.421Z,96340.75
2023-10-24T07:33:55.712Z,96332.63
2023-10-24T07:39:01.569Z,96325.16
2023-10-24T07:44:06.971Z,96321.28
2023-10-24T07:49:11.157Z,96305.72
2023-10-24T07:54:14.597Z,96303.44
2023-10-24T07:59:19.686Z,96322.44
2023-10-24T08:04:23.459Z,96368.44
2023-10-24T08:09:26.809Z,96368.22
2023-10-24T08:14:31.486Z,96348.97
2023-10-24T08:19:34.884Z,96338.59
2023-10-24T08:24:38.372Z,96357.25
2023-10-24T08:29:43.361Z,96342.06
2023-10-24T08:34:47.166Z,96349.84
2023-10-24T08:39:51.165Z,96367.88
2023-10-24T08:44:55.850Z,96356.31
2023-10-24T08:50:02.012Z,96368.38
2023-10-24T08:55:06.571Z,96364.66
2023-10-24T09:00:13.367Z,96373.88
2023-10-24T09:05:17.003Z,96354.00
2023-10-24T09:10:21.509Z,96336.78
2023-10-24T09:15:26.284Z,96329.84
2023-10-24T09:20:32.190Z,96326.09
2023-10-24T09:25:36.253Z,96329.47
2023-10-24T09:30:41.646Z,96332.88
2023-10-24T09:35:54.802Z,96326.41
2023-10-24T09:41:05.367Z,96315.47
2023-10-24T09:46:10.185Z,96329.28
2023-10-24T09:51:13.966Z,96330.22
2023-10-24T09:56:18.921Z,96314.75
2023-10-24T10:01:23.817Z,96339.25
2023-10-24T10:06:47.464Z,96332.41
2023-10-24T10:11:52.770Z,96324.78
2023-10-24T10:17:11.156Z,96328.94
2023-10-24T10:22:31.500Z,96313.00
2023-10-24T10:27:40.160Z,96325.94
2023-10-24T10:32:58.615Z,96324.22
2023-10-24T10:38:04.786Z,96321.34
2023-10-24T10:43:08.092Z,96314.28
2023-10-24T10:48:12.931Z,96309.69
2023-10-24T10:53:29.306Z,96306.66
2023-10-24T10:58:40.479Z,96302.09
2023-10-24T11:03:48.775Z,96312.50
2023-10-24T11:09:08.949Z,96298.16
2023-10-24T11:14:17.089Z,96292.09
2023-10-24T11:19:23.348Z,96277.09
2023-10-24T11:24:26.536Z,96271.88
2023-10-24T11:29:29.885Z,96265.22
2023-10-24T11:34:34.555Z,96252.09
2023-10-24T11:39:37.996Z,96249.34
2023-10-24T11:44:41.885Z,96254.50
2023-10-24T11:49:48.073Z,96254.06
2023-10-24T11:54:53.933Z,96263.06
2023-10-24T11:59:58.309Z,96252.69
2023-10-24T12:05:04.272Z,96251.84
2023-10-24T12:10:11.502Z,96250.06
2023-10-24T12:15:17.019Z,96234.91
2023-10-24T12:20:22.188Z,96225.69
2023-10-24T12:25:25.440Z,96228.28
2023-10-24T12:30:29.518Z,96232.44
2023-10-24T12:35:34.215Z,96234.81
2023-10-24T12:40:39.231Z,96235.16
2023-10-24T12:45:42.581Z,96239.22
2023-10-24T12:50:47.359Z,96231.00
2023-10-24T12:55:51.184Z,96230.25
2023-10-24T13:00:54.844Z,96213.78
2023-10-24T13:05:59.773Z,96215.53
2023-10-24T13:11:05.123Z,96217.66
2023-10-24T13:16:08.710Z,96211.72
2023-10-24T13:21:13.734Z,96202.66
2023-10-24T13:26:17.770Z,96202.13
2023-10-24T13:31:21.328Z,96205.81
2023-10-24T13:36:28.510Z,96198.97
2023-10-24T13:41:32.791Z,96200.69
2023-10-24T13:46:36.388Z,96188.91
2023-10-24T13:51:41.242Z,96176.78
2023-10-24T13:56:44.637Z,96181.84
2023-10-24T14:01:48.422Z,96187.41
2023-10-24T14:06:53.505Z,96192.06
2023-10-24T14:11:57.156Z,96177.13
2023-10-24T14:17:00.876Z,96172.00
2023-10-24T14:22:06.084Z,96179.63
2023-10-24T14:27:09.844Z,96177.66
2023-10-24T14:32:13.609Z,96168.13
2023-10-24T14:37:18.738Z,96166.69
2023-10-24T14:42:22.532Z,96167.72
2023-10-24T14:47:29.923Z,96180.31
2023-10-24T14:52:36.923Z,96182.97
2023-10-24T14:57:41.005Z,96164.31
2023-10-24T15:02:46.369Z,96169.56
2023-10-24T15:07:54.086Z,96164.03
2023-10-24T15:12:58.793Z,96155.06
2023-10-24T15:18:06.642Z,96144.28
2023-10-24T15:23:11.595Z,96143.03
2023-10-24T15:28:15.237Z,96134.84
2023-10-24T15:33:21.611Z,96124.47
2023-10-24T15:38:28.316Z,96128.94
2023-10-24T15:43:32.046Z,96119.50
2023-10-24T15:48:36.567Z,96131.25
2023-10-24T15:53:42.507Z,96129.06
2023-10-24T15:58:46.613Z,96130.25
2023-10-24T16:03:49.957Z,96133.56
2023-10-24T16:08:54.765Z,96141.34
2023-10-24T16:13:58.417Z,96143.41
2023-10-24T16:19:02.172Z,96134.34
2023-10-24T16:24:08.117Z,96134.59
2023-10-24T16:29:11.809Z,96143.06
2023-10-24T16:34:15.292Z,96134.00
2023-10-24T16:39:20.341Z,96140.63
2023-10-24T16:44:24.104Z,96139.94
2023-10-24T16:49:29.742Z,96137.34
2023-10-24T16:54:34.752Z,96139.50
2023-10-24T16:59:38.527Z,96134.28
2023-10-24T17:04:42.398Z,96126.09
2023-10-24T17:09:47.515Z,96118.53
2023-10-24T17:14:50.946Z,96109.94
2023-10-24T17:19:54.698Z,96117.13
2023-10-24T17:25:04.745Z,96123.50
2023-10-24T17:30:09.876Z,96128.28
2023-10-24T17:35:13.678Z,96132.91
2023-10-24T17:40:18.721Z,96144.22
2023-10-24T17:45:22.217Z,96134.94
2023-10-24T17:50:25.871Z,96139.91
2023-10-24T17:55:31.333Z,96139.59
2023-10-24T18:00:35.508Z,96126.28
2023-10-24T18:05:39.628Z,96116.84
2023-10-24T18:10:44.665Z,96119.84
2023-10-24T18:15:48.068Z,96118.84
2023-10-24T18:20:51.370Z,96109.53
2023-10-24T18:25:57.038Z,96112.41
2023-10-24T18:31:00.656Z,96118.38
2023-10-24T18:36:05.878Z,96116.69
2023-10-24T18:41:12.051Z,96106.59
2023-10-24T18:46:16.139Z,96113.25
2023-10-24T18:51:20.709Z,96102.78
2023-10-24T18:56:26.924Z,96100.31
2023-10-24T19:01:30.848Z,96116.59
2023-10-24T19:06:36.477Z,96113.25
2023-10-24T19:11:42.522Z,96126.22
2023-10-24T19:16:46.687Z,96117.59
2023-10-24T19:21:51.277Z,96125.59
2023-10-24T19:26:57.589Z,96128.72
2023-10-24T19:32:01.636Z,96129.38
2023-10-24T19:37:08.542Z,96119.09
2023-10-24T19:42:16.422Z,96137.34
2023-10-24T19:47:21.824Z,96136.38
2023-10-24T19:52:25.677Z,96141.97
2023-10-24T19:57:30.832Z,96141.97
2023-10-24T20:02:35.040Z,96152.97
2023-10-24T20:07:40.269Z,96149.13
2023-10-24T20:12:47.012Z,96153.25
2023-10-24T20:17:50.974Z,96147.47
2023-10-24T20:22:55.225Z,96149.13
2023-10-24T20:27:59.978Z,96156.44
2023-10-24T20:33:03.281Z,96155.13
2023-10-24T20:38:06.480Z,96155.94
2023-10-24T20:43:11.345Z,96152.59
2023-10-24T20:48:15.482Z,96151.75
2023-10-24T20:53:22.992Z,96153.75
2023-10-24T20:58:28.510Z,96156.03
2023-10-24T21:03:31.875Z,96162.16
2023-10-24T21:08:35.401Z,96164.75
2023-10-24T21:13:40.496Z,96176.00
2023-10-24T21:18:45.179Z,96165.53
2023-10-24T21:23:48.706Z,96170.00
2023-10-24T21:28:53.376Z,96171.78
2023-10-24T21:33:56.965Z,96165.81
2023-10-24T21:39:00.302Z,96169.31
2023-10-24T21:44:05.269Z,96161.31
2023-10-24T21:49:08.909Z,96171.44
2023-10-24T21:54:12.465Z,96166.66
2023-10-24T21:59:17.065Z,96174.38
2023-10-24T22:04:20.393Z,96176.00
2023-10-24T22:09:23.874Z,96186.34
2023-10-24T22:14:28.693Z,96181.75
2023-10-24T22:19:31.865Z,96190.72
2023-10-24T22:24:35.206Z,96194.44
2023-10-24T22:29:40.284Z,96203.19
2023-10-24T22:34:43.717Z,96214.03
2023-10-24T22:39:47.193Z,96218.00
2023-10-24T22:44:52.028Z,96220.00
2023-10-24T22:49:55.397Z,96219.78
2023-10-24T22:54:58.769Z,96218.38
2023-10-24T23:00:05.636Z,96228.03
2023-10-24T23:05:10.017Z,96228.31
2023-10-24T23:10:13.456Z,96228.63
2023-10-24T23:15:18.411Z,96218.94
2023-10-24T23:20:21.776Z,96218.13
2023-10-24T23:25:24.996Z,96223.50
2023-10-24T23:30:30.853Z,96217.69
2023-10-24T23:35:34.162Z,96215.47
2023-10-24T23:40:37.427Z,96223.13
2023-10-24T23:45:42.285Z,96221.84
2023-10-24T23:50:45.527Z,96225.84
2023-10-24T23:55:48.908Z,96227.09
